createdAt,value
2022-08-21T00:00:52.453Z,7.28
2022-08-21T00:05:55.319Z,8.40
2022-08-21T00:10:59.784Z,6.75
2022-08-21T00:16:04.255Z,8.98
2022-08-21T00:21:07.759Z,8.65
2022-08-21T00:26:12.276Z,6.80
2022-08-21T00:31:15.530Z,8.63
2022-08-21T00:36:18.844Z,10.95
2022-08-21T00:41:37.720Z,7.10
2022-08-21T00:46:43.040Z,6.68
2022-08-21T00:51:50.274Z,8.45
2022-08-21T00:56:57.461Z,8.55
2022-08-21T01:02:02.954Z,10.80
2022-08-21T01:07:06.124Z,15.32
2022-08-21T01:12:12.864Z,8.73
2022-08-21T01:17:18.493Z,8.65
2022-08-21T01:22:23.374Z,8.75
2022-08-21T01:27:26.192Z,7.32
2022-08-21T01:32:29.160Z,7.90
2022-08-21T01:37:33.505Z,7.32
2022-08-21T01:42:36.919Z,6.80
2022-08-21T01:47:40.279Z,7.85
2022-08-21T01:52:45.181Z,10.75
2022-08-21T01:57:48.913Z,7.05
2022-08-21T02:02:52.647Z,7.07
2022-08-21T02:07:58.354Z,11.98
2022-08-21T02:13:01.752Z,6.68
2022-08-21T02:18:08.007Z,10.07
2022-08-21T02:23:12.909Z,7.32
2022-08-21T02:28:16.632Z,6.60
2022-08-21T02:33:20.315Z,7.93
2022-08-21T02:38:27.493Z,7.35
2022-08-21T02:43:30.698Z,13.38
2022-08-21T02:48:35.181Z,7.78
2022-08-21T02:53:40.980Z,8.10
2022-08-21T02:58:46.805Z,8.15
2022-08-21T03:03:51.210Z,7.53
2022-08-21T03:08:55.608Z,6.68
2022-08-21T03:13:59.488Z,7.30
2022-08-21T03:19:03.437Z,7.80
2022-08-21T03:24:08.217Z,7.85
2022-08-21T03:29:11.832Z,9.63
2022-08-21T03:34:15.307Z,9.45
2022-08-21T03:39:19.936Z,10.13
2022-08-21T03:44:25.203Z,10.75
2022-08-21T03:49:28.649Z,8.30
2022-08-21T03:54:36.564Z,7.75
2022-08-21T03:59:40.472Z,9.60
2022-08-21T04:04:43.247Z,7.68
2022-08-21T04:09:47.733Z,7.40
2022-08-21T04:14:52.528Z,8.82
2022-08-21T04:19:56.291Z,8.90
2022-08-21T04:25:00.690Z,6.68
2022-08-21T04:30:04.395Z,8.07
2022-08-21T04:35:10.783Z,7.60
2022-08-21T04:40:17.816Z,7.82
2022-08-21T04:45:23.255Z,9.52
2022-08-21T04:50:28.954Z,6.22
2022-08-21T04:55:33.644Z,7.20
2022-08-21T05:00:37.134Z,9.05
2022-08-21T05:05:40.968Z,8.60
2022-08-21T05:10:45.715Z,8.77
2022-08-21T05:15:48.940Z,7.82
2022-08-21T05:20:51.990Z,6.68
2022-08-21T05:25:57.183Z,7.75
2022-08-21T05:31:00.114Z,10.65
2022-08-21T05:36:04.163Z,6.68
2022-08-21T05:41:08.730Z,6.32
2022-08-21T05:46:11.732Z,7.15
2022-08-21T05:51:16.680Z,7.68
2022-08-21T05:56:21.053Z,6.93
2022-08-21T06:01:24.033Z,5.88
2022-08-21T06:06:26.992Z,5.80
2022-08-21T06:11:31.383Z,7.15
2022-08-21T06:16:34.301Z,8.40
2022-08-21T06:21:37.271Z,6.57
2022-08-21T06:26:41.587Z,6.28
2022-08-21T06:31:45.559Z,7.30
2022-08-21T06:36:50.694Z,8.63
2022-08-21T06:41:56.310Z,7.97
2022-08-21T06:46:59.484Z,6.45
2022-08-21T06:52:02.643Z,5.93
2022-08-21T06:57:07.558Z,7.45
2022-08-21T07:02:10.408Z,7.80
2022-08-21T07:07:13.582Z,6.50
2022-08-21T07:12:18.383Z,6.13
2022-08-21T07:17:22.176Z,6.85
2022-08-21T07:22:25.314Z,8.90
2022-08-21T07:27:29.968Z,7.13
2022-08-21T07:32:32.933Z,9.20
2022-08-21T07:37:36.568Z,6.40
2022-08-21T07:42:43.942Z,7.82
2022-08-21T07:47:46.975Z,7.70
2022-08-21T07:52:50.091Z,7.18
2022-08-21T07:57:54.562Z,8.30
2022-08-21T08:02:57.867Z,7.05
2022-08-21T08:08:01.281Z,5.88
2022-08-21T08:13:05.675Z,6.30
2022-08-21T08:18:14.102Z,10.07
2022-08-21T08:23:16.990Z,6.57
2022-08-21T08:28:23.296Z,6.15
2022-08-21T08:33:26.370Z,8.18
2022-08-21T08:38:29.591Z,5.65
2022-08-21T08:43:35.625Z,6.28
2022-08-21T08:48:52.972Z,5.75
2022-08-21T08:54:03.964Z,7.38
2022-08-21T08:59:14.989Z,5.30
2022-08-21T09:04:25.120Z,4.40
2022-08-21T09:09:37.817Z,4.57
2022-08-21T09:14:56.113Z,6.32
2022-08-21T09:20:11.109Z,6.03
2022-08-21T09:25:24.222Z,5.85
2022-08-21T09:30:32.103Z,4.00
2022-08-21T09:35:36.590Z,4.10
2022-08-21T09:40:42.020Z,7.70
2022-08-21T09:45:48.339Z,3.80
2022-08-21T09:50:52.329Z,6.65
2022-08-21T09:56:17.282Z,6.10
2022-08-21T10:01:27.057Z,4.68
2022-08-21T10:06:30.512Z,5.32
2022-08-21T10:11:35.566Z,4.68
2022-08-21T10:16:48.205Z,4.88
2022-08-21T10:22:03.658Z,3.80
2022-08-21T10:27:16.838Z,3.08
2022-08-21T10:32:33.368Z,3.15
2022-08-21T10:37:45.772Z,3.17
2022-08-21T10:43:02.138Z,3.95
2022-08-21T10:48:09.232Z,3.42
2022-08-21T10:53:34.308Z,4.03
2022-08-21T10:58:42.049Z,3.13
2022-08-21T11:03:55.778Z,4.83
2022-08-21T11:09:05.345Z,4.10
2022-08-21T11:14:17.507Z,5.95
2022-08-21T11:19:29.680Z,4.68
2022-08-21T11:24:41.132Z,3.17
2022-08-21T11:29:47.860Z,3.88
2022-08-21T11:35:02.013Z,5.07
2022-08-21T11:40:11.620Z,3.85
2022-08-21T11:45:21.937Z,3.75
2022-08-21T11:50:34.477Z,3.23
2022-08-21T11:55:44.558Z,4.57
2022-08-21T12:00:53.533Z,6.70
2022-08-21T12:06:01.278Z,3.47
2022-08-21T12:11:08.185Z,3.40
2022-08-21T12:16:13.879Z,3.42
2022-08-21T12:21:34.948Z,6.45
2022-08-21T12:31:59.674Z,4.28
2022-08-21T12:42:17.958Z,3.85
2022-08-21T12:47:31.112Z,5.30
2022-08-21T12:52:40.991Z,4.22
2022-08-21T12:57:43.889Z,3.75
2022-08-21T13:02:49.586Z,6.70
2022-08-21T13:07:54.245Z,5.57
2022-08-21T13:12:59.418Z,3.65
2022-08-21T13:18:05.888Z,3.38
2022-08-21T13:23:24.164Z,6.82
2022-08-21T13:28:35.062Z,2.85
2022-08-21T13:33:40.138Z,3.45
2022-08-21T13:38:46.722Z,3.97
2022-08-21T13:43:57.683Z,3.25
2022-08-21T13:49:01.935Z,3.58
2022-08-21T13:54:16.862Z,4.15
2022-08-21T13:59:28.716Z,3.42
2022-08-21T14:04:37.383Z,4.30
2022-08-21T14:09:45.762Z,3.92
2022-08-21T14:14:48.638Z,4.28
2022-08-21T14:19:51.562Z,3.42
2022-08-21T14:25:03.000Z,4.72
2022-08-21T14:30:13.782Z,4.22
2022-08-21T14:35:22.846Z,6.88
2022-08-21T14:40:28.510Z,4.05
2022-08-21T14:45:32.869Z,3.33
2022-08-21T14:50:36.248Z,3.28
2022-08-21T14:55:59.940Z,5.20
2022-08-21T15:01:05.138Z,3.20
2022-08-21T15:06:09.263Z,3.42
2022-08-21T15:11:42.522Z,3.33
2022-08-21T15:16:43.576Z,4.40
2022-08-21T15:21:46.486Z,7.53
2022-08-21T15:26:51.924Z,3.58
2022-08-21T15:31:57.794Z,7.38
2022-08-21T15:37:01.095Z,5.38
2022-08-21T15:42:10.485Z,5.10
2022-08-21T15:47:16.371Z,3.40
2022-08-21T15:52:21.577Z,6.15
2022-08-21T15:57:27.321Z,4.28
2022-08-21T16:02:32.366Z,4.93
2022-08-21T16:07:35.287Z,4.72
2022-08-21T16:12:43.680Z,6.32
2022-08-21T16:17:49.161Z,4.22
2022-08-21T16:22:52.855Z,6.32
2022-08-21T16:28:01.885Z,4.45
2022-08-21T16:33:06.651Z,6.07
2022-08-21T16:38:11.076Z,4.50
2022-08-21T16:43:17.556Z,6.00
2022-08-21T16:53:40.711Z,4.30
2022-08-21T16:58:48.572Z,4.97
2022-08-21T17:03:52.463Z,4.63
2022-08-21T17:08:55.604Z,4.40
2022-08-21T17:14:04.192Z,4.45
2022-08-21T17:19:08.831Z,6.28
2022-08-21T17:24:15.830Z,5.07
2022-08-21T17:29:24.931Z,6.10
2022-08-21T17:34:31.138Z,5.00
2022-08-21T17:39:36.669Z,5.60
2022-08-21T17:44:42.674Z,5.15
2022-08-21T17:49:45.715Z,6.95
2022-08-21T17:54:49.263Z,7.53
2022-08-21T17:59:58.198Z,8.65
2022-08-21T18:05:01.833Z,9.25
2022-08-21T18:10:09.202Z,7.90
2022-08-21T18:15:17.085Z,6.60
2022-08-21T18:20:24.308Z,7.63
2022-08-21T18:25:29.181Z,7.13
2022-08-21T18:30:36.577Z,6.72
2022-08-21T18:35:40.291Z,6.75
2022-08-21T18:40:46.878Z,6.85
2022-08-21T18:45:51.982Z,8.55
2022-08-21T18:50:55.123Z,9.73
2022-08-21T18:56:04.819Z,7.63
2022-08-21T19:01:23.344Z,6.32
2022-08-21T19:06:27.609Z,8.52
2022-08-21T19:11:31.165Z,8.35
2022-08-21T19:16:36.042Z,9.07
2022-08-21T19:21:39.512Z,7.43
2022-08-21T19:26:43.188Z,6.13
2022-08-21T19:31:48.532Z,6.15
2022-08-21T19:36:51.781Z,7.05
2022-08-21T19:41:58.208Z,7.60
2022-08-21T19:47:05.842Z,10.50
2022-08-21T19:52:12.908Z,6.78
2022-08-21T19:57:18.018Z,6.70
2022-08-21T20:02:22.414Z,6.90
2022-08-21T20:12:50.773Z,11.38
2022-08-21T20:17:55.582Z,9.68
2022-08-21T20:23:01.059Z,6.38
2022-08-21T20:28:14.593Z,7.00
2022-08-21T20:33:22.222Z,9.65
2022-08-21T20:38:25.657Z,8.35
2022-08-21T20:43:29.302Z,7.22
2022-08-21T20:48:49.399Z,6.18
2022-08-21T20:54:03.535Z,6.53
2022-08-21T20:59:17.155Z,6.70
2022-08-21T21:04:33.670Z,9.10
2022-08-21T21:09:41.882Z,8.25
2022-08-21T21:14:48.406Z,7.35
2022-08-21T21:19:57.740Z,6.80
2022-08-21T21:25:06.641Z,8.10
2022-08-21T21:30:14.491Z,9.95
2022-08-21T21:35:32.991Z,7.70
2022-08-21T21:40:53.836Z,7.20
2022-08-21T21:46:09.662Z,7.47
2022-08-21T21:51:26.748Z,8.02
2022-08-21T21:56:44.530Z,9.07
2022-08-21T22:01:51.847Z,8.30
2022-08-21T22:07:03.753Z,9.57
2022-08-21T22:12:19.149Z,7.25
2022-08-21T22:17:37.582Z,10.25
2022-08-21T22:22:47.675Z,8.55
2022-08-21T22:27:59.657Z,8.43
2022-08-21T22:33:11.495Z,8.63
2022-08-21T22:38:30.675Z,8.30
2022-08-21T22:43:34.250Z,9.05
2022-08-21T22:48:39.831Z,10.63
2022-08-21T22:53:55.630Z,9.70
2022-08-21T22:59:03.119Z,8.82
2022-08-21T23:04:20.807Z,10.48
2022-08-21T23:09:34.597Z,9.45
2022-08-21T23:14:37.669Z,9.10
2022-08-21T23:19:55.199Z,8.70
2022-08-21T23:25:21.408Z,11.30
2022-08-21T23:30:40.284Z,11.02
2022-08-21T23:36:13.461Z,10.10
2022-08-21T23:41:34.737Z,9.43
2022-08-21T23:46:51.245Z,11.32
2022-08-21T23:52:04.345Z,8.52
2022-08-21T23:57:31.441Z,10.15
